createdAt,value
2022-08-14T00:01:24.126Z,75.00
2022-08-14T00:03:50.939Z,75.28
2022-08-14T00:06:25.578Z,75.68
2022-08-14T00:08:58.970Z,75.60
2022-08-14T00:11:31.203Z,75.91
2022-08-14T00:13:59.425Z,76.15
2022-08-14T00:16:41.199Z,76.13
2022-08-14T00:19:19.214Z,76.15
2022-08-14T00:21:50.391Z,76.17
2022-08-14T00:24:23.127Z,76.31
2022-08-14T00:26:55.991Z,76.45
2022-08-14T00:29:25.105Z,76.56
2022-08-14T00:31:56.039Z,76.33
2022-08-14T00:34:37.951Z,76.46
2022-08-14T00:37:11.272Z,76.41
2022-08-14T00:39:39.544Z,76.61
2022-08-14T00:42:07.665Z,76.50
2022-08-14T00:44:48.759Z,76.59
2022-08-14T00:47:17.300Z,76.46
2022-08-14T00:49:45.489Z,76.45
2022-08-14T00:52:17.627Z,76.56
2022-08-14T00:54:46.775Z,76.77
2022-08-14T00:57:13.749Z,76.81
2022-08-14T00:59:41.267Z,76.86
2022-08-14T01:02:09.341Z,76.83
2022-08-14T01:04:38.431Z,77.05
2022-08-14T01:07:21.719Z,77.15
2022-08-14T01:10:01.838Z,77.42
2022-08-14T01:12:30.123Z,77.30
2022-08-14T01:14:59.300Z,77.84
2022-08-14T01:17:49.931Z,78.04
2022-08-14T01:20:39.971Z,78.26
2022-08-14T01:23:15.773Z,78.27
2022-08-14T01:25:44.142Z,78.44
2022-08-14T01:28:12.600Z,78.85
2022-08-14T01:30:59.555Z,79.18
2022-08-14T01:33:29.145Z,79.76
2022-08-14T01:36:05.562Z,79.94
2022-08-14T01:38:48.964Z,80.19
2022-08-14T01:41:23.072Z,80.57
2022-08-14T01:44:02.407Z,80.83
2022-08-14T01:46:33.552Z,80.63
2022-08-14T01:49:10.026Z,81.19
2022-08-14T01:51:37.804Z,81.15
2022-08-14T01:54:14.224Z,81.25
2022-08-14T01:56:44.803Z,81.37
2022-08-14T01:59:18.626Z,81.37
2022-08-14T02:01:58.340Z,81.83
2022-08-14T02:04:55.638Z,81.81
2022-08-14T02:07:34.330Z,81.80
2022-08-14T02:10:08.730Z,81.77
2022-08-14T02:12:40.921Z,81.75
2022-08-14T02:15:11.385Z,81.86
2022-08-14T02:17:38.525Z,82.02
2022-08-14T02:20:08.562Z,81.84
2022-08-14T02:22:35.512Z,82.03
2022-08-14T02:25:14.567Z,81.93
2022-08-14T02:28:25.585Z,82.03
2022-08-14T02:30:33.740Z,82.57
2022-08-14T02:33:01.208Z,82.50
2022-08-14T02:35:32.973Z,82.71
2022-08-14T02:37:59.941Z,82.85
2022-08-14T02:40:32.515Z,82.77
2022-08-14T02:43:03.983Z,83.03
2022-08-14T02:45:38.405Z,83.18
2022-08-14T02:49:03.089Z,83.08
2022-08-14T02:51:00.726Z,83.21
2022-08-14T02:53:31.509Z,83.22
2022-08-14T02:56:02.571Z,83.34
2022-08-14T02:58:31.360Z,83.18
2022-08-14T03:00:59.359Z,83.26
2022-08-14T03:03:27.745Z,83.39
2022-08-14T03:05:58.806Z,83.50
2022-08-14T03:08:31.784Z,83.82
2022-08-14T03:11:06.601Z,83.75
2022-08-14T03:13:35.685Z,83.75
2022-08-14T03:16:03.830Z,84.02
2022-08-14T03:18:42.452Z,84.08
2022-08-14T03:21:13.410Z,84.03
2022-08-14T03:23:42.320Z,84.31
2022-08-14T03:26:18.271Z,84.38
2022-08-14T03:28:51.450Z,84.52
2022-08-14T03:31:22.498Z,84.59
2022-08-14T03:33:54.263Z,84.98
2022-08-14T03:37:38.473Z,85.35
2022-08-14T03:39:15.691Z,85.50
2022-08-14T03:41:50.870Z,85.83
2022-08-14T03:45:18.843Z,85.98
2022-08-14T03:47:04.756Z,86.35
2022-08-14T03:49:32.155Z,86.94
2022-08-14T03:52:07.807Z,87.07
2022-08-14T03:54:52.470Z,87.20
2022-08-14T03:57:20.238Z,87.43
2022-08-14T03:59:49.570Z,87.40
2022-08-14T04:02:32.316Z,87.92
2022-08-14T04:05:11.584Z,88.33
2022-08-14T04:07:49.625Z,88.32
2022-08-14T04:10:32.371Z,88.63
2022-08-14T04:13:03.691Z,88.90
2022-08-14T04:15:32.085Z,89.15
2022-08-14T04:18:19.038Z,89.32
2022-08-14T04:20:54.765Z,89.60
2022-08-14T04:23:29.574Z,89.68
2022-08-14T04:26:01.397Z,89.68
2022-08-14T04:29:07.932Z,89.97
2022-08-14T04:31:16.190Z,89.76
2022-08-14T04:33:42.835Z,90.16
2022-08-14T04:36:16.054Z,90.24
2022-08-14T04:39:02.953Z,90.61
2022-08-14T04:41:48.245Z,90.78
2022-08-14T04:44:35.870Z,90.88
2022-08-14T04:47:21.990Z,91.35
2022-08-14T04:49:57.265Z,91.21
2022-08-14T04:52:25.102Z,91.51
2022-08-14T04:54:52.130Z,91.47
2022-08-14T04:57:21.237Z,91.56
2022-08-14T04:59:49.380Z,91.69
2022-08-14T05:02:18.039Z,91.79
2022-08-14T05:04:45.559Z,91.83
2022-08-14T05:07:53.928Z,92.01
2022-08-14T05:10:13.162Z,92.14
2022-08-14T05:13:24.283Z,91.91
2022-08-14T05:15:29.439Z,92.29
2022-08-14T05:18:16.791Z,92.28
2022-08-14T05:21:57.671Z,92.19
2022-08-14T05:23:37.578Z,92.40
2022-08-14T05:26:13.260Z,92.43
2022-08-14T05:28:46.349Z,92.39
2022-08-14T05:31:20.373Z,92.42
2022-08-14T05:33:56.462Z,92.30
2022-08-14T05:36:23.948Z,92.55
2022-08-14T05:38:51.051Z,92.57
2022-08-14T05:41:20.298Z,92.68
2022-08-14T05:43:48.984Z,92.79
2022-08-14T05:46:22.621Z,93.07
2022-08-14T05:48:56.129Z,93.02
2022-08-14T05:51:25.164Z,93.07
2022-08-14T05:54:00.182Z,93.15
2022-08-14T05:56:36.888Z,93.01
2022-08-14T05:59:05.499Z,92.82
2022-08-14T06:01:32.200Z,92.87
2022-08-14T06:03:58.882Z,92.34
2022-08-14T06:06:25.372Z,91.53
2022-08-14T06:08:52.874Z,91.10
2022-08-14T06:11:27.932Z,90.58
2022-08-14T06:13:58.673Z,90.22
2022-08-14T06:16:25.332Z,89.66
2022-08-14T06:18:52.866Z,89.47
2022-08-14T06:21:21.721Z,89.24
2022-08-14T06:23:49.276Z,88.99
2022-08-14T06:26:15.989Z,88.70
2022-08-14T06:28:46.957Z,88.39
2022-08-14T06:31:13.451Z,88.33
2022-08-14T06:35:11.182Z,87.91
2022-08-14T06:36:27.115Z,87.54
2022-08-14T06:38:54.489Z,87.08
2022-08-14T06:41:57.180Z,86.68
2022-08-14T06:44:09.675Z,85.55
2022-08-14T06:46:37.759Z,85.00
2022-08-14T06:49:05.357Z,84.19
2022-08-14T06:51:38.647Z,83.74
2022-08-14T06:54:11.329Z,83.55
2022-08-14T06:56:38.673Z,83.38
2022-08-14T06:59:05.851Z,83.06
2022-08-14T07:01:51.499Z,82.75
2022-08-14T07:04:41.489Z,82.66
2022-08-14T07:07:08.019Z,81.87
2022-08-14T07:09:44.112Z,81.67
2022-08-14T07:12:52.200Z,81.32
2022-08-14T07:15:06.172Z,80.76
2022-08-14T07:17:34.474Z,80.86
2022-08-14T07:20:04.655Z,80.32
2022-08-14T07:22:49.847Z,80.14
2022-08-14T07:25:20.431Z,79.78
2022-08-14T07:27:46.935Z,79.11
2022-08-14T07:30:34.781Z,79.01
2022-08-14T07:33:00.976Z,78.14
2022-08-14T07:35:37.406Z,78.01
2022-08-14T07:38:18.470Z,77.51
2022-08-14T07:40:48.258Z,76.52
2022-08-14T07:43:20.472Z,76.14
2022-08-14T07:45:47.962Z,75.03
2022-08-14T07:48:17.967Z,75.07
2022-08-14T07:50:51.884Z,73.96
2022-08-14T07:53:19.394Z,73.55
2022-08-14T07:56:00.434Z,73.47
2022-08-14T07:58:38.991Z,73.22
2022-08-14T08:01:19.836Z,72.51
2022-08-14T08:03:51.821Z,71.78
2022-08-14T08:06:26.013Z,71.94
2022-08-14T08:09:01.245Z,71.84
2022-08-14T08:11:34.873Z,70.88
2022-08-14T08:14:17.255Z,70.10
2022-08-14T08:16:47.393Z,70.18
2022-08-14T08:19:19.202Z,70.15
2022-08-14T08:21:47.076Z,69.78
2022-08-14T08:24:19.910Z,68.95
2022-08-14T08:26:48.144Z,67.97
2022-08-14T08:29:28.226Z,68.21
2022-08-14T08:32:01.657Z,67.52
2022-08-14T08:34:32.015Z,67.53
2022-08-14T08:36:58.617Z,67.07
2022-08-14T08:39:30.786Z,66.10
2022-08-14T08:42:11.577Z,64.86
2022-08-14T08:44:41.014Z,65.02
2022-08-14T08:47:09.981Z,65.24
2022-08-14T08:49:42.963Z,65.14
2022-08-14T08:52:25.071Z,64.55
2022-08-14T08:54:55.802Z,64.21
2022-08-14T08:57:22.351Z,64.41
2022-08-14T08:59:55.383Z,64.54
2022-08-14T09:02:26.137Z,64.25
2022-08-14T09:05:02.446Z,64.49
2022-08-14T09:07:28.964Z,63.93
2022-08-14T09:09:59.918Z,63.49
2022-08-14T09:12:31.429Z,62.97
2022-08-14T09:15:01.196Z,62.18
2022-08-14T09:17:28.265Z,62.15
2022-08-14T09:19:55.678Z,61.30
2022-08-14T09:22:36.202Z,59.71
2022-08-14T09:25:06.874Z,59.71
2022-08-14T09:27:36.655Z,59.56
2022-08-14T09:30:31.161Z,59.19
2022-08-14T09:33:09.073Z,59.12
2022-08-14T09:35:58.910Z,58.58
2022-08-14T09:38:47.135Z,58.34
2022-08-14T09:42:21.586Z,58.40
2022-08-14T09:45:08.517Z,56.41
2022-08-14T09:47:47.173Z,55.74
2022-08-14T09:50:29.945Z,56.82
2022-08-14T09:52:59.572Z,55.87
2022-08-14T09:55:28.227Z,56.69
2022-08-14T09:58:22.554Z,56.93
2022-08-14T10:00:54.318Z,56.91
2022-08-14T10:03:34.408Z,56.59
2022-08-14T10:06:19.371Z,57.04
2022-08-14T10:08:51.754Z,56.51
2022-08-14T10:11:23.037Z,56.12
2022-08-14T10:13:54.337Z,56.38
2022-08-14T10:16:33.294Z,56.14
2022-08-14T10:19:09.525Z,56.49
2022-08-14T10:21:58.753Z,55.53
2022-08-14T10:24:36.518Z,55.57
2022-08-14T10:27:03.736Z,55.12
2022-08-14T10:29:38.816Z,55.34
2022-08-14T10:32:17.852Z,55.40
2022-08-14T10:35:10.901Z,55.43
2022-08-14T10:37:50.346Z,55.22
2022-08-14T10:40:44.303Z,54.96
2022-08-14T10:43:26.007Z,54.15
2022-08-14T10:46:21.467Z,53.46
2022-08-14T10:49:02.667Z,53.57
2022-08-14T10:51:36.414Z,53.36
2022-08-14T10:54:26.138Z,53.59
2022-08-14T10:57:11.391Z,53.33
2022-08-14T10:59:55.552Z,53.03
2022-08-14T11:02:44.908Z,53.37
2022-08-14T11:05:19.153Z,52.34
2022-08-14T11:08:00.922Z,52.61
2022-08-14T11:10:50.369Z,52.44
2022-08-14T11:13:26.640Z,52.41
2022-08-14T11:15:57.472Z,51.82
2022-08-14T11:18:32.329Z,52.40
2022-08-14T11:21:06.796Z,51.56
2022-08-14T11:23:38.121Z,51.30
2022-08-14T11:26:08.302Z,51.28
2022-08-14T11:28:46.862Z,51.11
2022-08-14T11:31:19.504Z,51.35
2022-08-14T11:33:57.575Z,50.38
2022-08-14T11:36:56.852Z,50.27
2022-08-14T11:39:34.802Z,50.38
2022-08-14T11:42:57.102Z,50.11
2022-08-14T11:45:00.214Z,49.24
2022-08-14T11:47:27.377Z,49.46
2022-08-14T11:50:13.322Z,49.76
2022-08-14T11:52:40.647Z,49.67
2022-08-14T11:55:13.568Z,49.21
2022-08-14T11:57:42.291Z,48.90
2022-08-14T12:00:31.715Z,49.15
2022-08-14T12:03:04.550Z,48.85
2022-08-14T12:05:42.230Z,48.60
2022-08-14T12:08:11.959Z,48.02
2022-08-14T12:10:43.275Z,47.89
2022-08-14T12:13:12.088Z,46.78
2022-08-14T12:15:44.614Z,47.36
2022-08-14T12:18:19.944Z,47.73
2022-08-14T12:20:52.715Z,47.97
2022-08-14T12:23:26.034Z,47.31
2022-08-14T12:26:31.568Z,47.08
2022-08-14T12:29:16.896Z,45.97
2022-08-14T12:31:47.283Z,44.80
2022-08-14T12:34:20.405Z,44.76
2022-08-14T12:36:49.770Z,45.34
2022-08-14T12:39:20.954Z,45.44
2022-08-14T12:42:01.463Z,45.79
2022-08-14T12:44:44.019Z,45.07
2022-08-14T12:47:16.688Z,45.11
2022-08-14T12:49:52.419Z,45.33
2022-08-14T12:52:45.383Z,43.03
2022-08-14T12:55:32.789Z,42.86
2022-08-14T12:58:35.379Z,42.19
2022-08-14T13:01:17.029Z,42.02
2022-08-14T13:03:48.168Z,41.43
2022-08-14T13:06:19.213Z,41.75
2022-08-14T13:08:53.079Z,41.81
2022-08-14T13:11:23.836Z,41.96
2022-08-14T13:13:56.579Z,41.47
2022-08-14T13:16:38.210Z,41.42
2022-08-14T13:19:16.107Z,41.77
2022-08-14T13:21:58.992Z,40.38
2022-08-14T13:24:34.466Z,39.94
2022-08-14T13:27:04.605Z,40.30
2022-08-14T13:29:37.629Z,40.14
2022-08-14T13:32:09.153Z,40.05
2022-08-14T13:34:37.556Z,39.56
2022-08-14T13:37:07.259Z,39.78
2022-08-14T13:39:36.321Z,40.15
2022-08-14T13:42:08.770Z,40.07
2022-08-14T13:44:45.379Z,40.13
2022-08-14T13:47:14.673Z,39.88
2022-08-14T13:49:57.410Z,39.85
2022-08-14T13:52:52.173Z,39.79
2022-08-14T13:55:14.029Z,39.83
2022-08-14T13:57:49.913Z,39.87
2022-08-14T14:00:35.653Z,39.73
2022-08-14T14:03:05.982Z,39.40
2022-08-14T14:05:52.636Z,38.55
2022-08-14T14:08:47.026Z,38.97
2022-08-14T14:11:09.661Z,38.77
2022-08-14T14:13:44.714Z,39.16
2022-08-14T14:16:15.607Z,38.36
2022-08-14T14:18:52.571Z,38.65
2022-08-14T14:21:21.486Z,38.01
2022-08-14T14:23:49.223Z,38.41
2022-08-14T14:26:23.269Z,37.58
2022-08-14T14:28:55.285Z,36.85
2022-08-14T14:31:29.999Z,36.59
2022-08-14T14:34:00.418Z,36.63
2022-08-14T14:36:32.768Z,36.26
2022-08-14T14:39:05.425Z,36.62
2022-08-14T14:41:44.118Z,35.69
2022-08-14T14:44:15.590Z,35.71
2022-08-14T14:46:50.647Z,35.58
2022-08-14T14:49:31.688Z,34.48
2022-08-14T14:52:16.830Z,33.90
2022-08-14T14:54:50.358Z,33.95
2022-08-14T14:57:19.210Z,33.97
2022-08-14T14:59:46.076Z,33.78
2022-08-14T15:02:32.361Z,33.59
2022-08-14T15:05:00.415Z,32.66
2022-08-14T15:07:27.188Z,33.04
2022-08-14T15:09:56.523Z,32.63
2022-08-14T15:12:55.524Z,33.25
2022-08-14T15:15:10.905Z,33.09
2022-08-14T15:17:40.928Z,32.58
2022-08-14T15:20:17.330Z,33.06
2022-08-14T15:22:57.384Z,32.42
2022-08-14T15:25:24.289Z,32.33
2022-08-14T15:27:51.243Z,32.08
2022-08-14T15:30:23.770Z,32.41
2022-08-14T15:32:51.702Z,32.41
2022-08-14T15:35:22.300Z,32.75
2022-08-14T15:37:55.995Z,33.16
2022-08-14T15:40:23.177Z,33.06
2022-08-14T15:42:49.818Z,32.96
2022-08-14T15:45:17.271Z,32.84
2022-08-14T15:47:44.098Z,32.99
2022-08-14T15:50:11.525Z,33.21
2022-08-14T15:52:38.525Z,32.25
2022-08-14T15:55:14.742Z,31.55
2022-08-14T15:58:02.087Z,31.90
2022-08-14T16:00:50.305Z,31.93
2022-08-14T16:03:27.934Z,32.56
2022-08-14T16:06:05.670Z,32.45
2022-08-14T16:08:32.673Z,31.57
2022-08-14T16:11:01.880Z,31.47
2022-08-14T16:13:42.960Z,31.62
2022-08-14T16:16:47.094Z,31.86
2022-08-14T16:19:09.986Z,31.67
2022-08-14T16:21:40.579Z,31.38
2022-08-14T16:24:27.635Z,31.79
2022-08-14T16:27:00.621Z,32.01
2022-08-14T16:29:30.310Z,31.47
2022-08-14T16:32:00.262Z,31.52
2022-08-14T16:34:45.031Z,31.39
2022-08-14T16:37:18.956Z,31.40
2022-08-14T16:39:48.677Z,31.38
2022-08-14T16:43:02.913Z,31.71
2022-08-14T16:45:02.914Z,33.00
2022-08-14T16:47:34.813Z,33.81
2022-08-14T16:50:09.226Z,34.24
2022-08-14T16:52:44.285Z,35.12
2022-08-14T16:55:13.920Z,35.67
2022-08-14T16:57:54.470Z,36.01
2022-08-14T17:00:32.692Z,36.09
2022-08-14T17:03:08.672Z,36.36
2022-08-14T17:05:41.655Z,36.69
2022-08-14T17:08:32.310Z,36.99
2022-08-14T17:11:10.936Z,37.59
2022-08-14T17:13:59.667Z,37.39
2022-08-14T17:16:36.953Z,36.85
2022-08-14T17:19:13.677Z,35.93
2022-08-14T17:21:41.998Z,35.71
2022-08-14T17:24:56.698Z,36.18
2022-08-14T17:27:00.024Z,35.61
2022-08-14T17:29:33.210Z,35.41
2022-08-14T17:32:22.505Z,35.60
2022-08-14T17:34:57.595Z,36.27
2022-08-14T17:37:30.530Z,36.41
2022-08-14T17:40:02.111Z,36.77
2022-08-14T17:42:45.188Z,37.25
2022-08-14T17:45:42.847Z,37.16
2022-08-14T17:49:14.997Z,37.36
2022-08-14T17:51:23.214Z,37.54
2022-08-14T17:54:01.365Z,37.94
2022-08-14T17:56:30.958Z,38.06
2022-08-14T17:59:06.189Z,38.36
2022-08-14T18:01:40.710Z,38.49
2022-08-14T18:04:28.345Z,39.07
2022-08-14T18:07:16.249Z,39.64
2022-08-14T18:09:56.187Z,39.72
2022-08-14T18:12:32.916Z,40.15
2022-08-14T18:15:16.227Z,40.18
2022-08-14T18:17:52.643Z,40.65
2022-08-14T18:21:40.115Z,40.77
2022-08-14T18:23:08.109Z,40.85
2022-08-14T18:25:45.982Z,41.13
2022-08-14T18:28:16.043Z,41.73
2022-08-14T18:30:58.594Z,41.81
2022-08-14T18:33:26.410Z,41.82
2022-08-14T18:35:58.577Z,41.92
2022-08-14T18:38:59.739Z,42.31
2022-08-14T18:41:37.176Z,42.69
2022-08-14T18:44:10.968Z,42.83
2022-08-14T18:47:09.909Z,43.14
2022-08-14T18:49:53.148Z,43.15
2022-08-14T18:52:23.004Z,43.27
2022-08-14T18:54:59.199Z,43.60
2022-08-14T18:57:27.136Z,43.74
2022-08-14T19:00:39.991Z,44.20
2022-08-14T19:03:08.873Z,44.32
2022-08-14T19:05:47.037Z,44.18
2022-08-14T19:08:25.312Z,44.27
2022-08-14T19:10:55.602Z,44.50
2022-08-14T19:13:48.169Z,44.54
2022-08-14T19:16:23.604Z,45.19
2022-08-14T19:19:00.170Z,45.28
2022-08-14T19:21:40.013Z,45.55
2022-08-14T19:24:27.797Z,45.97
2022-08-14T19:27:16.443Z,45.95
2022-08-14T19:29:47.752Z,46.14
2022-08-14T19:32:36.666Z,45.96
2022-08-14T19:35:14.938Z,46.39
2022-08-14T19:37:52.540Z,46.73
2022-08-14T19:40:42.892Z,46.74
2022-08-14T19:43:10.556Z,46.91
2022-08-14T19:45:38.812Z,47.00
2022-08-14T19:48:15.998Z,47.45
2022-08-14T19:50:46.074Z,47.71
2022-08-14T19:53:17.247Z,47.59
2022-08-14T19:55:58.626Z,48.11
2022-08-14T19:58:54.694Z,48.52
2022-08-14T20:01:25.977Z,48.44
2022-08-14T20:03:59.874Z,48.73
2022-08-14T20:06:35.530Z,49.08
2022-08-14T20:11:04.708Z,49.14
2022-08-14T20:12:04.620Z,49.06
2022-08-14T20:14:36.136Z,49.49
2022-08-14T20:17:06.714Z,49.17
2022-08-14T20:19:37.564Z,49.63
2022-08-14T20:22:36.565Z,49.48
2022-08-14T20:24:54.184Z,49.38
2022-08-14T20:27:21.320Z,49.44
2022-08-14T20:30:32.830Z,49.60
2022-08-14T20:33:11.806Z,49.83
2022-08-14T20:35:38.293Z,50.20
2022-08-14T20:38:31.721Z,50.58
2022-08-14T20:41:01.050Z,50.70
2022-08-14T20:43:52.959Z,51.11
2022-08-14T20:46:30.148Z,51.43
2022-08-14T20:49:01.675Z,51.66
2022-08-14T20:51:43.508Z,51.59
2022-08-14T20:54:21.565Z,51.72
2022-08-14T20:57:17.979Z,52.46
2022-08-14T20:59:50.364Z,52.21
2022-08-14T21:02:29.560Z,52.78
2022-08-14T21:05:04.628Z,52.65
2022-08-14T21:07:50.894Z,52.70
2022-08-14T21:10:33.302Z,52.61
2022-08-14T21:13:26.521Z,53.27
2022-08-14T21:15:57.782Z,53.20
2022-08-14T21:18:35.252Z,53.41
2022-08-14T21:21:19.161Z,53.72
2022-08-14T21:23:55.136Z,54.19
2022-08-14T21:26:51.129Z,53.94
2022-08-14T21:29:11.986Z,54.29
2022-08-14T21:31:40.504Z,54.28
2022-08-14T21:34:31.197Z,54.60
2022-08-14T21:36:54.472Z,54.81
2022-08-14T21:39:24.726Z,54.82
2022-08-14T21:41:58.880Z,54.71
2022-08-14T21:44:42.799Z,54.77
2022-08-14T21:47:13.030Z,55.43
2022-08-14T21:49:40.241Z,55.41
2022-08-14T21:52:50.352Z,55.61
2022-08-14T21:55:09.210Z,55.59
2022-08-14T21:58:44.691Z,56.05
2022-08-14T22:00:35.132Z,56.00
2022-08-14T22:03:05.421Z,56.24
2022-08-14T22:05:32.339Z,56.33
2022-08-14T22:07:59.412Z,56.56
2022-08-14T22:10:29.901Z,56.58
2022-08-14T22:13:01.217Z,57.02
2022-08-14T22:15:30.281Z,57.34
2022-08-14T22:17:58.866Z,57.34
2022-08-14T22:20:28.422Z,57.81
2022-08-14T22:22:57.424Z,58.18
2022-08-14T22:25:33.932Z,58.06
2022-08-14T22:28:05.971Z,58.09
2022-08-14T22:30:33.794Z,57.99
2022-08-14T22:33:00.626Z,58.35
2022-08-14T22:35:28.118Z,58.31
2022-08-14T22:38:34.976Z,58.41
2022-08-14T22:41:06.530Z,58.36
2022-08-14T22:43:31.749Z,58.23
2022-08-14T22:46:02.166Z,58.12
2022-08-14T22:48:29.663Z,58.14
2022-08-14T22:50:56.505Z,58.30
2022-08-14T22:53:24.134Z,57.93
2022-08-14T22:55:56.642Z,57.78
2022-08-14T22:58:30.236Z,57.74
2022-08-14T23:01:01.084Z,57.52
2022-08-14T23:03:28.751Z,57.22
2022-08-14T23:05:55.824Z,57.22
2022-08-14T23:09:00.129Z,56.95
2022-08-14T23:11:10.494Z,56.84
2022-08-14T23:13:43.522Z,56.82
2022-08-14T23:16:19.937Z,56.70
2022-08-14T23:18:53.804Z,56.79
2022-08-14T23:21:24.155Z,56.83
2022-08-14T23:23:55.001Z,56.81
2022-08-14T23:26:47.701Z,57.02
2022-08-14T23:29:11.471Z,57.56
2022-08-14T23:31:38.402Z,57.51
2022-08-14T23:34:09.257Z,57.74
2022-08-14T23:36:53.331Z,57.75
2022-08-14T23:39:29.579Z,57.84
2022-08-14T23:42:02.368Z,57.92
2022-08-14T23:44:32.189Z,58.11
2022-08-14T23:47:05.599Z,58.29
2022-08-14T23:50:00.055Z,58.28
2022-08-14T23:53:06.039Z,58.40
2022-08-14T23:55:11.675Z,58.49
2022-08-14T23:57:44.083Z,58.52
